createdAt,value
2018-05-02T00:01:52.836Z,85.80
2018-05-02T00:04:20.351Z,85.90
2018-05-02T00:06:47.822Z,85.40
2018-05-02T00:09:15.978Z,86.00
2018-05-02T00:11:44.194Z,86.00
2018-05-02T00:14:11.666Z,86.00
2018-05-02T00:16:39.088Z,85.90
2018-05-02T00:19:07.455Z,85.70
2018-05-02T00:21:34.878Z,85.40
2018-05-02T00:24:03.087Z,85.30
2018-05-02T00:26:30.550Z,85.30
2018-05-02T00:28:58.019Z,85.30
2018-05-02T00:31:25.438Z,85.60
2018-05-02T00:33:52.850Z,85.70
2018-05-02T00:36:20.328Z,85.60
2018-05-02T00:38:47.751Z,85.50
2018-05-02T00:41:15.166Z,85.50
2018-05-02T00:43:42.641Z,85.40
2018-05-02T00:46:10.112Z,85.30
2018-05-02T00:48:49.547Z,85.60
2018-05-02T00:51:16.958Z,85.60
2018-05-02T00:53:44.386Z,85.50
2018-05-02T00:56:11.971Z,85.70
2018-05-02T00:58:39.438Z,85.60
2018-05-02T01:01:07.594Z,86.00
2018-05-02T01:03:35.796Z,86.10
2018-05-02T01:06:03.223Z,86.10
2018-05-02T01:08:30.642Z,86.10
2018-05-02T01:10:58.121Z,86.00
2018-05-02T01:13:25.598Z,86.20
2018-05-02T01:15:53.002Z,86.30
2018-05-02T01:18:20.423Z,86.60
2018-05-02T01:20:47.900Z,86.70
2018-05-02T01:23:15.318Z,86.60
2018-05-02T01:25:42.731Z,86.20
2018-05-02T01:28:10.204Z,86.50
2018-05-02T01:30:37.775Z,86.40
2018-05-02T01:33:05.246Z,86.40
2018-05-02T01:35:32.659Z,86.40
2018-05-02T01:38:01.596Z,86.80
2018-05-02T01:40:29.778Z,86.80
2018-05-02T01:42:57.962Z,86.70
2018-05-02T01:45:26.147Z,86.60
2018-05-02T01:47:54.372Z,87.50
2018-05-02T01:50:21.778Z,87.00
2018-05-02T01:52:49.306Z,86.80
2018-05-02T01:55:16.724Z,86.40
2018-05-02T01:57:44.143Z,86.20
2018-05-02T02:00:11.622Z,86.00
2018-05-02T02:02:39.188Z,86.00
2018-05-02T02:05:06.603Z,86.00
2018-05-02T02:07:34.022Z,86.00
2018-05-02T02:10:01.438Z,85.90
2018-05-02T02:12:28.859Z,85.60
2018-05-02T02:14:56.274Z,85.40
2018-05-02T02:17:23.807Z,85.70
2018-05-02T02:19:51.278Z,85.60
2018-05-02T02:22:18.746Z,85.30
2018-05-02T02:24:46.159Z,85.30
2018-05-02T02:27:13.682Z,85.80
2018-05-02T02:29:41.098Z,86.00
2018-05-02T02:32:08.519Z,85.90
2018-05-02T02:34:35.934Z,86.30
2018-05-02T02:37:03.358Z,86.10
2018-05-02T02:39:30.775Z,86.10
2018-05-02T02:41:58.200Z,86.00
2018-05-02T02:44:25.611Z,86.20
2018-05-02T02:46:53.139Z,86.50
2018-05-02T02:49:20.555Z,86.60
2018-05-02T02:51:47.964Z,86.70
2018-05-02T02:54:15.386Z,86.60
2018-05-02T02:56:42.810Z,86.80
2018-05-02T02:59:10.253Z,86.60
2018-05-02T03:01:38.427Z,86.80
2018-05-02T03:04:05.860Z,86.80
2018-05-02T03:06:33.270Z,87.00
2018-05-02T03:09:00.775Z,87.10
2018-05-02T03:11:28.198Z,87.10
2018-05-02T03:13:55.620Z,86.70
2018-05-02T03:16:23.079Z,86.70
2018-05-02T03:18:50.550Z,86.80
2018-05-02T03:21:18.027Z,86.90
2018-05-02T03:23:45.494Z,86.90
2018-05-02T03:26:12.963Z,87.00
2018-05-02T03:28:40.384Z,87.10
2018-05-02T03:31:07.995Z,87.40
2018-05-02T03:33:35.479Z,87.50
2018-05-02T03:36:02.942Z,87.70
2018-05-02T03:38:30.369Z,87.60
2018-05-02T03:40:58.543Z,87.70
2018-05-02T03:43:25.963Z,87.70
2018-05-02T03:45:53.437Z,87.70
2018-05-02T03:48:20.855Z,87.60
2018-05-02T03:50:48.273Z,88.00
2018-05-02T03:53:15.751Z,88.10
2018-05-02T03:55:43.223Z,88.60
2018-05-02T03:58:10.635Z,89.00
2018-05-02T04:00:50.138Z,88.90
2018-05-02T04:03:29.552Z,89.00
2018-05-02T04:06:09.729Z,90.00
2018-05-02T04:08:37.919Z,89.40
2018-05-02T04:11:06.102Z,89.40
2018-05-02T04:13:34.286Z,89.20
2018-05-02T04:16:02.471Z,89.40
2018-05-02T04:18:30.650Z,90.00
2018-05-02T04:20:58.074Z,90.00
2018-05-02T04:23:25.493Z,89.80
2018-05-02T04:25:52.996Z,89.80
2018-05-02T04:28:20.407Z,89.80
2018-05-02T04:30:47.827Z,90.00
2018-05-02T04:33:15.307Z,90.00
2018-05-02T04:35:42.785Z,90.20
2018-05-02T04:38:10.198Z,90.10
2018-05-02T04:40:37.611Z,90.10
2018-05-02T04:43:05.088Z,90.00
2018-05-02T04:45:32.493Z,90.00
2018-05-02T04:47:59.916Z,89.90
2018-05-02T04:50:27.331Z,89.60
2018-05-02T04:52:54.756Z,89.80
2018-05-02T04:55:22.261Z,90.10
2018-05-02T04:57:49.694Z,89.70
2018-05-02T05:00:17.107Z,89.20
2018-05-02T05:02:44.529Z,89.40
2018-05-02T05:05:11.939Z,89.40
2018-05-02T05:07:39.386Z,89.00
2018-05-02T05:10:06.775Z,89.00
2018-05-02T05:12:34.207Z,88.70
2018-05-02T05:15:01.618Z,88.90
2018-05-02T05:17:29.053Z,88.70
2018-05-02T05:19:56.517Z,88.80
2018-05-02T05:22:23.933Z,88.50
2018-05-02T05:24:51.451Z,88.50
2018-05-02T05:27:18.922Z,88.60
2018-05-02T05:29:46.396Z,88.80
2018-05-02T05:32:13.868Z,88.70
2018-05-02T05:34:41.283Z,88.20
2018-05-02T05:37:08.807Z,93.30
2018-05-02T05:39:36.230Z,91.20
2018-05-02T05:42:03.747Z,86.00
2018-05-02T05:44:31.166Z,82.00
2018-05-02T05:46:58.689Z,78.70
2018-05-02T05:49:26.115Z,76.50
2018-05-02T05:51:54.298Z,71.10
2018-05-02T05:54:21.912Z,71.00
2018-05-02T05:56:49.235Z,71.80
2018-05-02T05:59:16.661Z,73.30
2018-05-02T06:01:44.089Z,74.60
2018-05-02T06:04:12.284Z,79.00
2018-05-02T06:06:40.509Z,79.70
2018-05-02T06:09:08.987Z,79.70
2018-05-02T06:11:36.402Z,80.70
2018-05-02T06:14:03.923Z,81.40
2018-05-02T06:16:31.335Z,82.10
2018-05-02T06:18:58.762Z,82.20
2018-05-02T06:21:26.346Z,82.50
2018-05-02T06:23:53.807Z,82.30
2018-05-02T06:26:21.222Z,82.40
2018-05-02T06:28:48.651Z,82.20
2018-05-02T06:31:16.111Z,82.70
2018-05-02T06:33:43.534Z,82.70
2018-05-02T06:36:10.946Z,83.20
2018-05-02T06:38:38.427Z,83.40
2018-05-02T06:41:05.886Z,83.00
2018-05-02T06:43:33.460Z,82.90
2018-05-02T06:46:00.835Z,82.80
2018-05-02T06:48:28.258Z,82.60
2018-05-02T06:50:55.770Z,82.60
2018-05-02T06:53:23.247Z,82.20
2018-05-02T06:55:50.662Z,82.20
2018-05-02T06:58:18.087Z,82.00
2018-05-02T07:00:45.519Z,81.50
2018-05-02T07:03:12.931Z,81.50
2018-05-02T07:05:40.342Z,81.60
2018-05-02T07:08:07.955Z,81.00
2018-05-02T07:10:35.430Z,81.00
2018-05-02T07:13:02.897Z,81.20
2018-05-02T07:15:30.367Z,80.30
2018-05-02T07:17:57.792Z,79.40
2018-05-02T07:20:25.210Z,79.40
2018-05-02T07:22:52.676Z,79.00
2018-05-02T07:25:20.153Z,79.20
2018-05-02T07:27:47.562Z,79.20
2018-05-02T07:30:15.806Z,78.60
2018-05-02T07:32:43.273Z,78.70
2018-05-02T07:35:10.751Z,78.60
2018-05-02T07:37:38.212Z,78.40
2018-05-02T07:40:06.383Z,77.10
2018-05-02T07:42:33.871Z,77.70
2018-05-02T07:45:01.344Z,76.60
2018-05-02T07:47:28.779Z,76.10
2018-05-02T07:49:56.970Z,76.30
2018-05-02T07:52:25.189Z,75.70
2018-05-02T07:54:52.616Z,75.70
2018-05-02T07:57:20.843Z,75.20
2018-05-02T07:59:48.271Z,74.30
2018-05-02T08:02:15.691Z,71.80
2018-05-02T08:04:43.123Z,72.10
2018-05-02T08:07:11.306Z,74.60
2018-05-02T08:09:39.502Z,73.30
2018-05-02T08:12:06.923Z,73.30
2018-05-02T08:14:34.345Z,72.70
2018-05-02T08:17:01.827Z,70.90
2018-05-02T08:19:29.303Z,70.70
2018-05-02T08:21:56.721Z,72.50
2018-05-02T08:24:24.142Z,72.00
2018-05-02T08:26:51.590Z,70.50
2018-05-02T08:29:19.018Z,70.10
2018-05-02T08:31:46.544Z,70.70
2018-05-02T08:34:14.015Z,71.90
2018-05-02T08:36:41.426Z,69.40
2018-05-02T08:39:09.814Z,68.80
2018-05-02T08:41:37.239Z,69.20
2018-05-02T08:44:04.714Z,69.20
2018-05-02T08:46:32.137Z,69.60
2018-05-02T08:48:59.570Z,67.60
2018-05-02T08:51:26.991Z,66.30
2018-05-02T08:53:55.212Z,64.70
2018-05-02T08:56:22.680Z,64.70
2018-05-02T08:58:50.098Z,64.70
2018-05-02T09:01:19.022Z,65.40
2018-05-02T09:03:47.256Z,65.60
2018-05-02T09:06:14.808Z,65.60
2018-05-02T09:08:42.234Z,65.30
2018-05-02T09:11:09.650Z,64.20
2018-05-02T09:13:37.074Z,65.50
2018-05-02T09:16:05.262Z,63.00
2018-05-02T09:18:32.770Z,63.00
2018-05-02T09:21:00.205Z,62.90
2018-05-02T09:23:27.618Z,63.00
2018-05-02T09:25:55.079Z,62.70
2018-05-02T09:28:22.498Z,62.50
2018-05-02T09:30:49.930Z,60.40
2018-05-02T09:33:17.351Z,59.50
2018-05-02T09:35:44.831Z,59.50
2018-05-02T09:38:12.226Z,61.90
2018-05-02T09:40:39.658Z,61.30
2018-05-02T09:43:07.848Z,54.50
2018-05-02T09:45:36.042Z,57.60
2018-05-02T09:48:04.226Z,56.80
2018-05-02T09:50:32.418Z,57.10
2018-05-02T09:53:00.605Z,58.10
2018-05-02T09:55:28.816Z,60.10
2018-05-02T09:57:56.233Z,60.10
2018-05-02T10:00:23.671Z,57.40
2018-05-02T10:02:51.119Z,54.00
2018-05-02T10:05:18.550Z,54.30
2018-05-02T10:07:47.495Z,58.70
2018-05-02T10:10:14.931Z,58.70
2018-05-02T10:12:42.492Z,55.30
2018-05-02T10:15:09.915Z,57.80
2018-05-02T10:17:37.333Z,58.00
2018-05-02T10:20:04.764Z,57.20
2018-05-02T10:22:32.183Z,53.50
2018-05-02T10:25:00.398Z,56.50
2018-05-02T10:27:27.821Z,56.50
2018-05-02T10:29:55.255Z,55.30
2018-05-02T10:32:22.671Z,53.70
2018-05-02T10:34:50.182Z,52.00
2018-05-02T10:37:17.606Z,52.30
2018-05-02T10:39:45.119Z,50.50
2018-05-02T10:42:12.543Z,53.30
2018-05-02T10:44:40.062Z,54.60
2018-05-02T10:47:07.479Z,50.60
2018-05-02T10:49:34.910Z,50.30
2018-05-02T10:52:02.335Z,49.50
2018-05-02T10:54:30.530Z,48.50
2018-05-02T10:56:58.735Z,49.20
2018-05-02T10:59:26.209Z,49.00
2018-05-02T11:01:53.626Z,48.10
2018-05-02T11:04:21.054Z,46.50
2018-05-02T11:06:48.528Z,47.80
2018-05-02T11:09:15.995Z,45.70
2018-05-02T11:11:43.406Z,50.60
2018-05-02T11:14:10.830Z,48.20
2018-05-02T11:16:38.255Z,47.90
2018-05-02T11:19:05.682Z,47.90
2018-05-02T11:21:33.098Z,48.10
2018-05-02T11:24:01.287Z,46.40
2018-05-02T11:26:29.479Z,47.40
2018-05-02T11:28:57.658Z,43.50
2018-05-02T11:31:25.851Z,43.30
2018-05-02T11:33:54.034Z,43.50
2018-05-02T11:36:22.250Z,41.50
2018-05-02T11:38:49.731Z,41.50
2018-05-02T11:41:17.198Z,44.70
2018-05-02T11:43:44.618Z,43.60
2018-05-02T11:46:12.208Z,43.80
2018-05-02T11:48:39.603Z,43.60
2018-05-02T11:51:07.026Z,41.00
2018-05-02T11:53:34.547Z,44.50
2018-05-02T11:56:01.982Z,40.90
2018-05-02T11:58:30.171Z,43.40
2018-05-02T12:00:58.359Z,38.20
2018-05-02T12:03:26.552Z,39.20
2018-05-02T12:05:54.758Z,38.50
2018-05-02T12:08:22.174Z,38.40
2018-05-02T12:10:51.147Z,40.80
2018-05-02T12:13:18.566Z,40.80
2018-05-02T12:15:46.070Z,42.90
2018-05-02T12:18:13.489Z,40.20
2018-05-02T12:20:42.424Z,41.10
2018-05-02T12:23:10.619Z,39.80
2018-05-02T12:25:38.809Z,40.60
2018-05-02T12:28:06.287Z,40.60
2018-05-02T12:30:33.762Z,42.50
2018-05-02T12:33:01.230Z,41.60
2018-05-02T12:35:28.722Z,38.80
2018-05-02T12:37:56.174Z,37.60
2018-05-02T12:40:23.622Z,38.80
2018-05-02T12:42:51.831Z,39.50
2018-05-02T12:45:19.294Z,39.50
2018-05-02T12:47:46.712Z,39.90
2018-05-02T12:50:14.238Z,40.80
2018-05-02T12:52:41.650Z,41.70
2018-05-02T12:55:09.095Z,41.20
2018-05-02T12:57:36.514Z,38.80
2018-05-02T13:00:04.706Z,39.30
2018-05-02T13:02:32.977Z,38.40
2018-05-02T13:05:01.086Z,37.30
2018-05-02T13:07:29.291Z,40.20
2018-05-02T13:09:56.764Z,40.10
2018-05-02T13:12:24.178Z,38.50
2018-05-02T13:14:51.703Z,39.50
2018-05-02T13:17:19.128Z,39.10
2018-05-02T13:19:46.559Z,37.80
2018-05-02T13:22:13.970Z,40.30
2018-05-02T13:24:41.400Z,37.70
2018-05-02T13:27:08.853Z,34.10
2018-05-02T13:29:36.278Z,36.60
2018-05-02T13:32:04.498Z,38.30
2018-05-02T13:34:31.917Z,37.80
2018-05-02T13:36:59.342Z,38.50
2018-05-02T13:39:26.776Z,38.40
2018-05-02T13:41:54.275Z,38.30
2018-05-02T13:44:21.754Z,36.70
2018-05-02T13:46:49.231Z,34.60
2018-05-02T13:49:16.698Z,37.80
2018-05-02T13:51:44.162Z,39.20
2018-05-02T13:54:11.582Z,38.10
2018-05-02T13:56:39.006Z,35.90
2018-05-02T13:59:07.490Z,36.60
2018-05-02T14:01:34.955Z,38.00
2018-05-02T14:04:02.376Z,39.20
2018-05-02T14:06:29.802Z,39.80
2018-05-02T14:08:57.266Z,39.80
2018-05-02T14:11:24.693Z,39.80
2018-05-02T14:13:52.206Z,41.20
2018-05-02T14:16:19.630Z,41.20
2018-05-02T14:18:47.146Z,39.90
2018-05-02T14:21:14.577Z,40.00
2018-05-02T14:23:42.090Z,40.70
2018-05-02T14:26:09.519Z,41.40
2018-05-02T14:28:37.033Z,40.40
2018-05-02T14:31:04.493Z,39.40
2018-05-02T14:33:31.909Z,39.20
2018-05-02T14:35:59.339Z,39.40
2018-05-02T14:38:26.801Z,39.10
2018-05-02T14:40:54.231Z,39.30
2018-05-02T14:43:21.646Z,41.00
2018-05-02T14:45:49.118Z,42.60
2018-05-02T14:48:16.586Z,41.50
2018-05-02T14:50:44.157Z,40.80
2018-05-02T14:53:11.584Z,41.60
2018-05-02T14:55:39.013Z,43.10
2018-05-02T14:58:06.431Z,41.70
2018-05-02T15:00:34.646Z,42.30
2018-05-02T15:03:02.115Z,42.30
2018-05-02T15:05:29.543Z,42.40
2018-05-02T15:07:57.055Z,42.60
2018-05-02T15:10:24.523Z,42.90
2018-05-02T15:12:51.950Z,41.40
2018-05-02T15:15:19.369Z,40.90
2018-05-02T15:17:46.841Z,40.60
2018-05-02T15:20:14.271Z,41.60
2018-05-02T15:22:42.449Z,40.60
2018-05-02T15:25:09.974Z,40.50
2018-05-02T15:27:37.429Z,41.60
2018-05-02T15:30:04.855Z,40.00
2018-05-02T15:32:32.465Z,40.10
2018-05-02T15:34:59.790Z,39.70
2018-05-02T15:37:27.313Z,40.70
2018-05-02T15:39:54.730Z,41.10
2018-05-02T15:42:22.149Z,41.20
2018-05-02T15:44:49.624Z,40.50
2018-05-02T15:47:17.051Z,41.20
2018-05-02T15:49:44.465Z,42.50
2018-05-02T15:52:11.931Z,42.80
2018-05-02T15:54:39.539Z,41.20
2018-05-02T15:57:07.068Z,40.00
2018-05-02T15:59:34.542Z,40.90
2018-05-02T16:02:02.022Z,41.40
2018-05-02T16:04:29.451Z,40.60
2018-05-02T16:06:57.670Z,41.80
2018-05-02T16:09:25.139Z,41.80
2018-05-02T16:11:52.702Z,40.60
2018-05-02T16:14:20.179Z,42.70
2018-05-02T16:16:47.602Z,43.10
2018-05-02T16:19:15.027Z,42.60
2018-05-02T16:21:42.494Z,42.50
2018-05-02T16:24:09.915Z,43.10
2018-05-02T16:26:37.350Z,43.20
2018-05-02T16:29:04.766Z,43.50
2018-05-02T16:31:32.958Z,50.30
2018-05-02T16:34:01.146Z,51.20
2018-05-02T16:36:29.363Z,53.20
2018-05-02T16:38:56.902Z,53.10
2018-05-02T16:41:24.246Z,51.90
2018-05-02T16:43:51.666Z,53.50
2018-05-02T16:46:19.134Z,53.20
2018-05-02T16:48:46.556Z,54.60
2018-05-02T16:51:15.514Z,50.60
2018-05-02T16:53:42.935Z,50.60
2018-05-02T16:56:10.357Z,49.30
2018-05-02T16:58:37.810Z,49.10
2018-05-02T17:01:05.247Z,48.40
2018-05-02T17:03:32.666Z,48.70
2018-05-02T17:06:00.182Z,51.10
2018-05-02T17:08:27.598Z,49.60
2018-05-02T17:10:55.022Z,48.30
2018-05-02T17:13:23.210Z,48.20
2018-05-02T17:15:51.434Z,51.50
2018-05-02T17:18:18.995Z,50.90
2018-05-02T17:20:46.474Z,55.20
2018-05-02T17:23:13.945Z,57.50
2018-05-02T17:25:41.429Z,60.50
2018-05-02T17:28:08.854Z,62.40
2018-05-02T17:30:37.046Z,63.20
2018-05-02T17:33:05.255Z,63.10
2018-05-02T17:35:32.728Z,63.00
2018-05-02T17:38:00.153Z,63.30
2018-05-02T17:40:27.576Z,63.80
2018-05-02T17:42:55.003Z,63.40
2018-05-02T17:45:23.221Z,64.20
2018-05-02T17:47:50.646Z,64.20
2018-05-02T17:50:18.062Z,64.10
2018-05-02T17:52:45.518Z,63.90
2018-05-02T17:55:14.415Z,62.90
2018-05-02T17:57:42.607Z,61.70
2018-05-02T18:00:10.027Z,61.70
2018-05-02T18:02:37.455Z,60.80
2018-05-02T18:05:04.870Z,62.10
2018-05-02T18:07:32.406Z,63.30
2018-05-02T18:09:59.819Z,62.60
2018-05-02T18:12:27.335Z,62.50
2018-05-02T18:14:54.802Z,61.50
2018-05-02T18:17:22.226Z,61.10
2018-05-02T18:19:50.463Z,63.40
2018-05-02T18:22:17.886Z,63.50
2018-05-02T18:24:45.405Z,62.60
2018-05-02T18:27:12.876Z,62.30
2018-05-02T18:29:40.298Z,63.40
2018-05-02T18:32:07.806Z,64.00
2018-05-02T18:34:35.278Z,64.00
2018-05-02T18:37:02.654Z,63.10
2018-05-02T18:39:30.079Z,63.70
2018-05-02T18:41:57.669Z,64.60
2018-05-02T18:44:25.015Z,65.40
2018-05-02T18:46:52.443Z,65.40
2018-05-02T18:49:19.862Z,65.20
2018-05-02T18:51:48.063Z,66.40
2018-05-02T18:54:16.241Z,66.90
2018-05-02T18:56:44.441Z,67.40
2018-05-02T18:59:12.619Z,67.20
2018-05-02T19:01:40.810Z,67.40
2018-05-02T19:04:09.022Z,67.50
2018-05-02T19:06:36.486Z,67.40
2018-05-02T19:09:05.618Z,68.10
2018-05-02T19:11:33.112Z,68.60
2018-05-02T19:14:01.246Z,68.80
2018-05-02T19:16:28.730Z,68.70
2018-05-02T19:19:01.906Z,69.90
2018-05-02T19:21:30.097Z,70.20
2018-05-02T19:23:58.336Z,70.40
2018-05-02T19:26:31.418Z,70.40
2018-05-02T19:28:58.836Z,71.10
2018-05-02T19:31:32.778Z,71.90
2018-05-02T19:34:00.270Z,71.10
2018-05-02T19:36:27.734Z,71.40
2018-05-02T19:38:55.217Z,72.20
2018-05-02T19:41:28.198Z,72.50
2018-05-02T19:44:01.388Z,73.10
2018-05-02T19:46:29.590Z,72.50
2018-05-02T19:48:57.006Z,72.50
2018-05-02T19:51:30.158Z,72.40
2018-05-02T19:53:57.665Z,72.60
2018-05-02T19:56:25.061Z,73.60
2018-05-02T19:58:54.011Z,74.90
2018-05-02T20:01:27.206Z,74.90
2018-05-02T20:03:54.686Z,75.10
2018-05-02T20:06:22.199Z,74.40
2018-05-02T20:08:55.196Z,74.30
2018-05-02T20:11:28.407Z,75.40
2018-05-02T20:14:01.651Z,76.70
2018-05-02T20:16:29.857Z,78.00
2018-05-02T20:18:57.283Z,78.00
2018-05-02T20:21:24.708Z,78.50
2018-05-02T20:23:52.137Z,78.40
2018-05-02T20:26:20.331Z,78.10
2018-05-02T20:28:48.638Z,78.10
2018-05-02T20:31:16.059Z,78.20
2018-05-02T20:33:43.490Z,78.70
2018-05-02T20:36:10.907Z,79.50
2018-05-02T20:38:39.842Z,79.50
2018-05-02T20:41:07.262Z,79.40
2018-05-02T20:43:34.794Z,80.30
2018-05-02T20:46:02.258Z,79.90
2018-05-02T20:48:29.694Z,79.80
2018-05-02T20:50:57.103Z,80.10
2018-05-02T20:53:24.575Z,80.00
2018-05-02T20:55:51.999Z,80.50
2018-05-02T20:58:20.186Z,81.70
2018-05-02T21:00:47.610Z,81.10
2018-05-02T21:03:15.067Z,80.90
2018-05-02T21:05:42.534Z,80.60
2018-05-02T21:08:09.967Z,80.70
2018-05-02T21:10:37.470Z,80.50
2018-05-02T21:13:04.908Z,80.20
2018-05-02T21:15:32.322Z,80.30
2018-05-02T21:17:59.750Z,80.80
2018-05-02T21:20:28.071Z,81.20
2018-05-02T21:22:55.493Z,81.10
2018-05-02T21:25:22.910Z,80.90
2018-05-02T21:27:50.343Z,80.80
2018-05-02T21:30:17.854Z,81.10
2018-05-02T21:32:45.297Z,80.80
2018-05-02T21:35:13.479Z,79.70
2018-05-02T21:37:41.670Z,79.50
2018-05-02T21:40:09.866Z,80.10
2018-05-02T21:42:37.351Z,80.10
2018-05-02T21:45:04.819Z,79.30
2018-05-02T21:47:32.238Z,78.50
2018-05-02T21:49:59.667Z,80.30
2018-05-02T21:52:27.089Z,79.80
2018-05-02T21:54:54.596Z,79.60
2018-05-02T21:57:22.006Z,78.80
2018-05-02T21:59:51.014Z,78.90
2018-05-02T22:02:19.154Z,78.60
2018-05-02T22:04:46.619Z,78.50
2018-05-02T22:07:14.091Z,78.80
2018-05-02T22:09:41.514Z,78.90
2018-05-02T22:12:09.341Z,78.80
2018-05-02T22:14:36.767Z,78.70
2018-05-02T22:17:04.186Z,79.50
2018-05-02T22:19:31.642Z,79.70
2018-05-02T22:21:59.062Z,79.70
2018-05-02T22:24:26.490Z,79.60
2018-05-02T22:26:53.906Z,80.00
2018-05-02T22:29:21.422Z,80.40
2018-05-02T22:31:48.956Z,81.00
2018-05-02T22:34:16.314Z,80.80
2018-05-02T22:36:43.831Z,80.80
2018-05-02T22:39:12.167Z,80.90
2018-05-02T22:41:39.803Z,80.80
2018-05-02T22:44:07.229Z,81.10
2018-05-02T22:46:34.646Z,81.10
2018-05-02T22:49:02.119Z,81.20
2018-05-02T22:51:29.533Z,81.40
2018-05-02T22:53:57.731Z,81.80
2018-05-02T22:56:25.918Z,81.90
2018-05-02T22:58:54.106Z,81.80
2018-05-02T23:01:22.294Z,81.40
2018-05-02T23:03:50.483Z,81.10
2018-05-02T23:06:18.670Z,81.00
2018-05-02T23:08:46.866Z,81.20
2018-05-02T23:11:15.075Z,81.30
2018-05-02T23:13:42.506Z,81.10
2018-05-02T23:16:10.735Z,81.10
2018-05-02T23:18:38.166Z,81.10
2018-05-02T23:21:06.391Z,81.30
2018-05-02T23:23:33.847Z,81.30
2018-05-02T23:26:01.269Z,81.70
2018-05-02T23:28:28.790Z,82.00
2018-05-02T23:30:56.267Z,82.10
2018-05-02T23:33:23.694Z,82.10
2018-05-02T23:35:51.114Z,82.00
2018-05-02T23:38:18.538Z,82.70
2018-05-02T23:40:46.763Z,82.20
2018-05-02T23:43:14.182Z,82.20
2018-05-02T23:45:43.114Z,82.40
2018-05-02T23:48:11.298Z,82.40
2018-05-02T23:50:38.726Z,82.30
2018-05-02T23:53:06.258Z,82.40
2018-05-02T23:55:33.693Z,82.70
2018-05-02T23:58:01.099Z,83.00
